sensor_id;sensor_type;location;lat;lon;timestamp;P1;durP1;ratioP1;P2;durP2;ratioP2
16820;SDS011;8527;49.740;6.604;2022-09-24T00:00:30;9.15;;;4.40;;
16820;SDS011;8527;49.740;6.604;2022-09-24T00:05:31;8.95;;;4.15;;
16820;SDS011;8527;49.740;6.604;2022-09-24T00:10:41;8.82;;;4.10;;
16820;SDS011;8527;49.740;6.604;2022-09-24T00:15:47;8.85;;;3.60;;
16820;SDS011;8527;49.740;6.604;2022-09-24T00:20:47;8.23;;;3.33;;
16820;SDS011;8527;49.740;6.604;2022-09-24T00:25:46;7.80;;;4.07;;
16820;SDS011;8527;49.740;6.604;2022-09-24T00:31:06;7.95;;;3.58;;
16820;SDS011;8527;49.740;6.604;2022-09-24T00:36:05;10.38;;;3.70;;
16820;SDS011;8527;49.740;6.604;2022-09-24T00:41:04;5.70;;;3.08;;
16820;SDS011;8527;49.740;6.604;2022-09-24T00:46:10;7.43;;;3.63;;
16820;SDS011;8527;49.740;6.604;2022-09-24T00:51:15;6.38;;;3.05;;
16820;SDS011;8527;49.740;6.604;2022-09-24T00:56:18;9.25;;;3.97;;
16820;SDS011;8527;49.740;6.604;2022-09-24T01:01:23;9.88;;;3.45;;
16820;SDS011;8527;49.740;6.604;2022-09-24T01:06:22;9.25;;;3.80;;
16820;SDS011;8527;49.740;6.604;2022-09-24T01:11:25;11.15;;;3.60;;
16820;SDS011;8527;49.740;6.604;2022-09-24T01:16:46;10.75;;;4.07;;
16820;SDS011;8527;49.740;6.604;2022-09-24T01:21:50;10.02;;;4.00;;
16820;SDS011;8527;49.740;6.604;2022-09-24T01:26:57;9.73;;;4.18;;
16820;SDS011;8527;49.740;6.604;2022-09-24T01:32:04;11.02;;;4.15;;
16820;SDS011;8527;49.740;6.604;2022-09-24T01:37:06;8.88;;;4.35;;
16820;SDS011;8527;49.740;6.604;2022-09-24T01:42:07;10.95;;;4.45;;
16820;SDS011;8527;49.740;6.604;2022-09-24T01:47:10;7.93;;;3.85;;
16820;SDS011;8527;49.740;6.604;2022-09-24T01:52:14;6.95;;;3.65;;
16820;SDS011;8527;49.740;6.604;2022-09-24T01:57:17;7.00;;;4.50;;
16820;SDS011;8527;49.740;6.604;2022-09-24T02:02:23;7.78;;;3.70;;
16820;SDS011;8527;49.740;6.604;2022-09-24T02:07:28;7.38;;;4.15;;
16820;SDS011;8527;49.740;6.604;2022-09-24T02:12:35;8.38;;;3.92;;
16820;SDS011;8527;49.740;6.604;2022-09-24T02:17:40;12.00;;;4.25;;
16820;SDS011;8527;49.740;6.604;2022-09-24T02:22:42;7.22;;;4.10;;
16820;SDS011;8527;49.740;6.604;2022-09-24T02:27:42;10.65;;;4.10;;
16820;SDS011;8527;49.740;6.604;2022-09-24T02:32:43;8.57;;;3.70;;
16820;SDS011;8527;49.740;6.604;2022-09-24T02:37:42;6.35;;;3.97;;
16820;SDS011;8527;49.740;6.604;2022-09-24T02:42:42;17.42;;;4.72;;
16820;SDS011;8527;49.740;6.604;2022-09-24T02:47:43;9.73;;;4.45;;
16820;SDS011;8527;49.740;6.604;2022-09-24T02:52:41;11.93;;;4.55;;
16820;SDS011;8527;49.740;6.604;2022-09-24T02:57:40;7.00;;;4.32;;
16820;SDS011;8527;49.740;6.604;2022-09-24T03:02:41;9.05;;;4.05;;
16820;SDS011;8527;49.740;6.604;2022-09-24T03:07:43;8.00;;;4.50;;
16820;SDS011;8527;49.740;6.604;2022-09-24T03:12:41;10.30;;;4.25;;
16820;SDS011;8527;49.740;6.604;2022-09-24T03:17:40;9.02;;;4.25;;
16820;SDS011;8527;49.740;6.604;2022-09-24T03:22:41;11.23;;;4.07;;
16820;SDS011;8527;49.740;6.604;2022-09-24T03:27:39;9.65;;;4.10;;
16820;SDS011;8527;49.740;6.604;2022-09-24T03:32:37;9.63;;;3.95;;
16820;SDS011;8527;49.740;6.604;2022-09-24T03:37:36;7.93;;;4.32;;
16820;SDS011;8527;49.740;6.604;2022-09-24T03:42:39;7.68;;;4.05;;
16820;SDS011;8527;49.740;6.604;2022-09-24T03:47:38;5.97;;;3.90;;
16820;SDS011;8527;49.740;6.604;2022-09-24T03:52:36;8.88;;;4.03;;
16820;SDS011;8527;49.740;6.604;2022-09-24T03:57:35;9.82;;;3.90;;
16820;SDS011;8527;49.740;6.604;2022-09-24T04:02:39;9.85;;;3.97;;
16820;SDS011;8527;49.740;6.604;2022-09-24T04:07:37;10.82;;;4.00;;
16820;SDS011;8527;49.740;6.604;2022-09-24T04:12:36;8.35;;;4.25;;
16820;SDS011;8527;49.740;6.604;2022-09-24T04:17:37;10.10;;;3.83;;
16820;SDS011;8527;49.740;6.604;2022-09-24T04:22:36;9.95;;;4.25;;
16820;SDS011;8527;49.740;6.604;2022-09-24T04:27:34;6.88;;;3.95;;
16820;SDS011;8527;49.740;6.604;2022-09-24T04:32:33;9.13;;;4.32;;
16820;SDS011;8527;49.740;6.604;2022-09-24T04:37:34;9.23;;;4.32;;
16820;SDS011;8527;49.740;6.604;2022-09-24T04:42:33;10.65;;;4.40;;
16820;SDS011;8527;49.740;6.604;2022-09-24T04:47:31;7.28;;;4.47;;
16820;SDS011;8527;49.740;6.604;2022-09-24T04:52:30;7.78;;;4.50;;
16820;SDS011;8527;49.740;6.604;2022-09-24T04:57:31;9.30;;;4.38;;
16820;SDS011;8527;49.740;6.604;2022-09-24T05:02:30;8.90;;;4.57;;
16820;SDS011;8527;49.740;6.604;2022-09-24T05:07:28;10.88;;;4.85;;
16820;SDS011;8527;49.740;6.604;2022-09-24T05:12:32;11.45;;;5.57;;
16820;SDS011;8527;49.740;6.604;2022-09-24T05:17:37;9.70;;;4.65;;
16820;SDS011;8527;49.740;6.604;2022-09-24T05:22:46;7.70;;;4.38;;
16820;SDS011;8527;49.740;6.604;2022-09-24T05:27:51;8.55;;;4.22;;
16820;SDS011;8527;49.740;6.604;2022-09-24T05:32:51;9.18;;;4.32;;
16820;SDS011;8527;49.740;6.604;2022-09-24T05:37:50;8.68;;;4.88;;
16820;SDS011;8527;49.740;6.604;2022-09-24T05:42:57;8.85;;;4.70;;
16820;SDS011;8527;49.740;6.604;2022-09-24T05:48:02;8.73;;;5.05;;
16820;SDS011;8527;49.740;6.604;2022-09-24T05:53:00;9.20;;;5.00;;
16820;SDS011;8527;49.740;6.604;2022-09-24T05:58:09;8.68;;;5.05;;
16820;SDS011;8527;49.740;6.604;2022-09-24T06:03:17;9.65;;;4.60;;
16820;SDS011;8527;49.740;6.604;2022-09-24T06:08:37;10.15;;;5.40;;
16820;SDS011;8527;49.740;6.604;2022-09-24T06:13:43;10.25;;;4.93;;
16820;SDS011;8527;49.740;6.604;2022-09-24T06:18:45;11.52;;;5.95;;
16820;SDS011;8527;49.740;6.604;2022-09-24T06:23:43;10.07;;;5.10;;
16820;SDS011;8527;49.740;6.604;2022-09-24T06:28:49;10.10;;;5.70;;
16820;SDS011;8527;49.740;6.604;2022-09-24T06:33:48;17.67;;;5.70;;
16820;SDS011;8527;49.740;6.604;2022-09-24T06:38:49;14.15;;;5.78;;
16820;SDS011;8527;49.740;6.604;2022-09-24T06:43:51;10.15;;;5.47;;
16820;SDS011;8527;49.740;6.604;2022-09-24T06:48:56;12.77;;;5.40;;
16820;SDS011;8527;49.740;6.604;2022-09-24T06:53:55;11.27;;;5.70;;
16820;SDS011;8527;49.740;6.604;2022-09-24T06:58:56;8.02;;;4.70;;
16820;SDS011;8527;49.740;6.604;2022-09-24T07:03:54;15.68;;;5.78;;
16820;SDS011;8527;49.740;6.604;2022-09-24T07:08:59;10.93;;;5.35;;
16820;SDS011;8527;49.740;6.604;2022-09-24T07:14:01;10.60;;;5.80;;
16820;SDS011;8527;49.740;6.604;2022-09-24T07:19:10;8.95;;;5.32;;
16820;SDS011;8527;49.740;6.604;2022-09-24T07:24:09;7.60;;;5.00;;
16820;SDS011;8527;49.740;6.604;2022-09-24T07:29:10;8.48;;;5.28;;
16820;SDS011;8527;49.740;6.604;2022-09-24T07:34:08;10.63;;;5.45;;
16820;SDS011;8527;49.740;6.604;2022-09-24T07:39:11;7.22;;;5.40;;
16820;SDS011;8527;49.740;6.604;2022-09-24T07:44:12;10.23;;;5.57;;
16820;SDS011;8527;49.740;6.604;2022-09-24T07:49:12;8.52;;;5.28;;
16820;SDS011;8527;49.740;6.604;2022-09-24T07:54:10;8.68;;;4.95;;
16820;SDS011;8527;49.740;6.604;2022-09-24T07:59:17;6.40;;;4.93;;
16820;SDS011;8527;49.740;6.604;2022-09-24T08:04:16;9.40;;;5.30;;
16820;SDS011;8527;49.740;6.604;2022-09-24T08:09:14;8.52;;;4.93;;
16820;SDS011;8527;49.740;6.604;2022-09-24T08:14:13;8.57;;;4.90;;
16820;SDS011;8527;49.740;6.604;2022-09-24T08:19:14;10.13;;;5.00;;
16820;SDS011;8527;49.740;6.604;2022-09-24T08:24:13;10.50;;;5.00;;
16820;SDS011;8527;49.740;6.604;2022-09-24T08:29:12;10.80;;;5.07;;
16820;SDS011;8527;49.740;6.604;2022-09-24T08:34:16;10.63;;;4.88;;
16820;SDS011;8527;49.740;6.604;2022-09-24T08:39:14;11.95;;;5.30;;
16820;SDS011;8527;49.740;6.604;2022-09-24T08:44:14;10.02;;;5.45;;
16820;SDS011;8527;49.740;6.604;2022-09-24T08:49:40;8.65;;;4.78;;
16820;SDS011;8527;49.740;6.604;2022-09-24T08:54:44;8.75;;;4.45;;
16820;SDS011;8527;49.740;6.604;2022-09-24T08:59:47;10.32;;;4.75;;
16820;SDS011;8527;49.740;6.604;2022-09-24T09:04:55;7.07;;;4.47;;
16820;SDS011;8527;49.740;6.604;2022-09-24T09:10:03;8.63;;;4.90;;
16820;SDS011;8527;49.740;6.604;2022-09-24T09:15:10;7.22;;;4.47;;
16820;SDS011;8527;49.740;6.604;2022-09-24T09:20:17;8.15;;;4.60;;
16820;SDS011;8527;49.740;6.604;2022-09-24T09:25:20;8.25;;;4.70;;
16820;SDS011;8527;49.740;6.604;2022-09-24T09:30:22;7.75;;;4.40;;
16820;SDS011;8527;49.740;6.604;2022-09-24T09:35:26;6.68;;;4.50;;
16820;SDS011;8527;49.740;6.604;2022-09-24T09:40:30;10.32;;;4.50;;
16820;SDS011;8527;49.740;6.604;2022-09-24T09:45:41;8.10;;;4.43;;
16820;SDS011;8527;49.740;6.604;2022-09-24T09:50:52;10.68;;;4.53;;
16820;SDS011;8527;49.740;6.604;2022-09-24T09:55:58;5.93;;;3.88;;
16820;SDS011;8527;49.740;6.604;2022-09-24T10:01:04;10.32;;;4.88;;
16820;SDS011;8527;49.740;6.604;2022-09-24T10:06:10;7.20;;;4.60;;
16820;SDS011;8527;49.740;6.604;2022-09-24T10:11:12;6.30;;;4.30;;
16820;SDS011;8527;49.740;6.604;2022-09-24T10:16:13;11.18;;;5.38;;
16820;SDS011;8527;49.740;6.604;2022-09-24T10:21:28;9.38;;;4.55;;
16820;SDS011;8527;49.740;6.604;2022-09-24T10:26:33;9.18;;;4.47;;
16820;SDS011;8527;49.740;6.604;2022-09-24T10:31:36;8.10;;;4.10;;
16820;SDS011;8527;49.740;6.604;2022-09-24T10:36:48;8.50;;;4.63;;
16820;SDS011;8527;49.740;6.604;2022-09-24T10:41:50;7.15;;;4.00;;
16820;SDS011;8527;49.740;6.604;2022-09-24T10:47:06;7.43;;;3.97;;
16820;SDS011;8527;49.740;6.604;2022-09-24T10:57:45;9.02;;;4.35;;
16820;SDS011;8527;49.740;6.604;2022-09-24T11:08:46;7.50;;;4.10;;
16820;SDS011;8527;49.740;6.604;2022-09-24T11:14:00;11.23;;;4.15;;
16820;SDS011;8527;49.740;6.604;2022-09-24T11:19:21;9.05;;;4.57;;
16820;SDS011;8527;49.740;6.604;2022-09-24T11:24:44;8.98;;;4.70;;
16820;SDS011;8527;49.740;6.604;2022-09-24T11:29:56;12.18;;;5.35;;
16820;SDS011;8527;49.740;6.604;2022-09-24T11:35:16;8.40;;;4.60;;
16820;SDS011;8527;49.740;6.604;2022-09-24T11:40:39;8.20;;;4.50;;
16820;SDS011;8527;49.740;6.604;2022-09-24T11:45:52;11.07;;;5.00;;
16820;SDS011;8527;49.740;6.604;2022-09-24T11:50:59;11.27;;;4.85;;
16820;SDS011;8527;49.740;6.604;2022-09-24T11:56:08;8.50;;;4.97;;
16820;SDS011;8527;49.740;6.604;2022-09-24T12:01:13;8.68;;;5.03;;
16820;SDS011;8527;49.740;6.604;2022-09-24T12:06:17;11.80;;;4.63;;
16820;SDS011;8527;49.740;6.604;2022-09-24T12:11:28;13.38;;;4.70;;
16820;SDS011;8527;49.740;6.604;2022-09-24T12:16:31;6.75;;;4.25;;
16820;SDS011;8527;49.740;6.604;2022-09-24T12:21:33;7.97;;;4.45;;
16820;SDS011;8527;49.740;6.604;2022-09-24T12:26:37;6.75;;;4.70;;
16820;SDS011;8527;49.740;6.604;2022-09-24T12:31:40;9.15;;;4.65;;
16820;SDS011;8527;49.740;6.604;2022-09-24T12:36:59;7.50;;;4.55;;
16820;SDS011;8527;49.740;6.604;2022-09-24T12:42:05;9.88;;;4.75;;
16820;SDS011;8527;49.740;6.604;2022-09-24T12:47:19;6.60;;;4.25;;
16820;SDS011;8527;49.740;6.604;2022-09-24T12:52:23;7.40;;;4.57;;
16820;SDS011;8527;49.740;6.604;2022-09-24T12:57:26;7.38;;;4.10;;
16820;SDS011;8527;49.740;6.604;2022-09-24T13:02:30;7.57;;;4.90;;
16820;SDS011;8527;49.740;6.604;2022-09-24T13:07:40;9.95;;;4.75;;
16820;SDS011;8527;49.740;6.604;2022-09-24T13:12:51;9.80;;;5.40;;
16820;SDS011;8527;49.740;6.604;2022-09-24T13:17:58;9.18;;;5.30;;
16820;SDS011;8527;49.740;6.604;2022-09-24T13:23:10;7.80;;;4.90;;
16820;SDS011;8527;49.740;6.604;2022-09-24T13:28:23;11.80;;;5.25;;
16820;SDS011;8527;49.740;6.604;2022-09-24T13:33:29;10.10;;;4.72;;
16820;SDS011;8527;49.740;6.604;2022-09-24T13:38:30;10.93;;;5.50;;
16820;SDS011;8527;49.740;6.604;2022-09-24T13:43:37;12.50;;;5.43;;
16820;SDS011;8527;49.740;6.604;2022-09-24T13:48:44;7.97;;;5.07;;
16820;SDS011;8527;49.740;6.604;2022-09-24T13:53:54;12.43;;;6.55;;
16820;SDS011;8527;49.740;6.604;2022-09-24T13:59:11;11.38;;;5.78;;
16820;SDS011;8527;49.740;6.604;2022-09-24T14:04:20;11.00;;;4.95;;
16820;SDS011;8527;49.740;6.604;2022-09-24T14:09:33;13.30;;;7.03;;
16820;SDS011;8527;49.740;6.604;2022-09-24T14:14:36;12.30;;;7.38;;
16820;SDS011;8527;49.740;6.604;2022-09-24T14:19:43;13.13;;;5.68;;
16820;SDS011;8527;49.740;6.604;2022-09-24T14:24:46;10.35;;;5.68;;
16820;SDS011;8527;49.740;6.604;2022-09-24T14:29:55;11.80;;;5.50;;
16820;SDS011;8527;49.740;6.604;2022-09-24T14:35:02;13.52;;;6.15;;
16820;SDS011;8527;49.740;6.604;2022-09-24T14:40:10;12.57;;;5.70;;
16820;SDS011;8527;49.740;6.604;2022-09-24T14:45:18;12.50;;;5.78;;
16820;SDS011;8527;49.740;6.604;2022-09-24T14:50:35;8.98;;;5.25;;
16820;SDS011;8527;49.740;6.604;2022-09-24T14:55:36;14.63;;;6.13;;
16820;SDS011;8527;49.740;6.604;2022-09-24T15:00:44;11.65;;;5.60;;
16820;SDS011;8527;49.740;6.604;2022-09-24T15:06:00;11.25;;;4.80;;
16820;SDS011;8527;49.740;6.604;2022-09-24T15:11:13;17.02;;;5.80;;
16820;SDS011;8527;49.740;6.604;2022-09-24T15:16:19;11.05;;;5.18;;
16820;SDS011;8527;49.740;6.604;2022-09-24T15:21:26;13.18;;;5.65;;
16820;SDS011;8527;49.740;6.604;2022-09-24T15:26:29;13.25;;;6.60;;
16820;SDS011;8527;49.740;6.604;2022-09-24T15:31:32;12.75;;;5.07;;
16820;SDS011;8527;49.740;6.604;2022-09-24T15:36:31;15.43;;;6.47;;
16820;SDS011;8527;49.740;6.604;2022-09-24T15:41:29;14.07;;;5.75;;
16820;SDS011;8527;49.740;6.604;2022-09-24T15:46:27;13.82;;;6.65;;
16820;SDS011;8527;49.740;6.604;2022-09-24T15:51:30;19.00;;;7.75;;
16820;SDS011;8527;49.740;6.604;2022-09-24T15:56:32;10.70;;;5.70;;
16820;SDS011;8527;49.740;6.604;2022-09-24T16:01:30;7.97;;;4.72;;
16820;SDS011;8527;49.740;6.604;2022-09-24T16:06:34;11.50;;;5.60;;
16820;SDS011;8527;49.740;6.604;2022-09-24T16:11:37;7.82;;;3.50;;
16820;SDS011;8527;49.740;6.604;2022-09-24T16:16:36;8.65;;;5.43;;
16820;SDS011;8527;49.740;6.604;2022-09-24T16:21:43;12.27;;;6.68;;
16820;SDS011;8527;49.740;6.604;2022-09-24T16:26:43;14.35;;;7.25;;
16820;SDS011;8527;49.740;6.604;2022-09-24T16:31:44;12.82;;;7.45;;
16820;SDS011;8527;49.740;6.604;2022-09-24T16:36:54;11.32;;;5.95;;
16820;SDS011;8527;49.740;6.604;2022-09-24T16:42:04;6.88;;;4.90;;
16820;SDS011;8527;49.740;6.604;2022-09-24T16:47:03;9.15;;;5.40;;
16820;SDS011;8527;49.740;6.604;2022-09-24T16:52:04;15.13;;;7.28;;
16820;SDS011;8527;49.740;6.604;2022-09-24T16:57:05;10.43;;;6.55;;
16820;SDS011;8527;49.740;6.604;2022-09-24T17:02:04;12.65;;;5.85;;
16820;SDS011;8527;49.740;6.604;2022-09-24T17:07:15;11.32;;;5.50;;
16820;SDS011;8527;49.740;6.604;2022-09-24T17:12:14;9.88;;;4.85;;
16820;SDS011;8527;49.740;6.604;2022-09-24T17:17:15;8.02;;;4.85;;
16820;SDS011;8527;49.740;6.604;2022-09-24T17:22:16;8.30;;;4.80;;
16820;SDS011;8527;49.740;6.604;2022-09-24T17:27:16;6.05;;;4.50;;
16820;SDS011;8527;49.740;6.604;2022-09-24T17:32:20;11.18;;;6.30;;
16820;SDS011;8527;49.740;6.604;2022-09-24T17:37:21;11.75;;;5.82;;
16820;SDS011;8527;49.740;6.604;2022-09-24T17:42:21;8.68;;;5.03;;
16820;SDS011;8527;49.740;6.604;2022-09-24T17:47:19;12.85;;;6.78;;
16820;SDS011;8527;49.740;6.604;2022-09-24T17:52:40;7.65;;;4.00;;
16820;SDS011;8527;49.740;6.604;2022-09-24T17:57:39;8.55;;;5.57;;
16820;SDS011;8527;49.740;6.604;2022-09-24T18:02:37;8.88;;;5.00;;
16820;SDS011;8527;49.740;6.604;2022-09-24T18:07:36;6.78;;;4.32;;
16820;SDS011;8527;49.740;6.604;2022-09-24T18:12:38;8.80;;;4.10;;
16820;SDS011;8527;49.740;6.604;2022-09-24T18:17:36;5.75;;;3.70;;
16820;SDS011;8527;49.740;6.604;2022-09-24T18:22:34;9.02;;;4.40;;
16820;SDS011;8527;49.740;6.604;2022-09-24T18:27:33;7.80;;;5.18;;
16820;SDS011;8527;49.740;6.604;2022-09-24T18:32:35;6.45;;;4.03;;
16820;SDS011;8527;49.740;6.604;2022-09-24T18:37:41;6.82;;;4.10;;
16820;SDS011;8527;49.740;6.604;2022-09-24T18:47:50;6.93;;;4.95;;
16820;SDS011;8527;49.740;6.604;2022-09-24T18:52:52;9.30;;;4.45;;
16820;SDS011;8527;49.740;6.604;2022-09-24T18:58:05;5.80;;;4.07;;
16820;SDS011;8527;49.740;6.604;2022-09-24T19:03:14;6.18;;;3.80;;
16820;SDS011;8527;49.740;6.604;2022-09-24T19:08:16;5.15;;;3.45;;
16820;SDS011;8527;49.740;6.604;2022-09-24T19:13:15;5.90;;;3.30;;
16820;SDS011;8527;49.740;6.604;2022-09-24T19:18:16;6.63;;;4.43;;
16820;SDS011;8527;49.740;6.604;2022-09-24T19:23:20;10.18;;;5.03;;
16820;SDS011;8527;49.740;6.604;2022-09-24T19:28:21;9.43;;;5.53;;
16820;SDS011;8527;49.740;6.604;2022-09-24T19:33:22;7.95;;;5.18;;
16820;SDS011;8527;49.740;6.604;2022-09-24T19:38:27;9.15;;;5.68;;
16820;SDS011;8527;49.740;6.604;2022-09-24T19:43:31;10.02;;;4.78;;
16820;SDS011;8527;49.740;6.604;2022-09-24T19:48:34;10.63;;;5.47;;
16820;SDS011;8527;49.740;6.604;2022-09-24T19:53:37;7.70;;;5.13;;
16820;SDS011;8527;49.740;6.604;2022-09-24T19:58:47;7.95;;;4.22;;
16820;SDS011;8527;49.740;6.604;2022-09-24T20:03:52;7.60;;;4.00;;
16820;SDS011;8527;49.740;6.604;2022-09-24T20:08:50;8.15;;;4.15;;
16820;SDS011;8527;49.740;6.604;2022-09-24T20:13:50;5.70;;;4.22;;
16820;SDS011;8527;49.740;6.604;2022-09-24T20:18:52;5.53;;;4.32;;
16820;SDS011;8527;49.740;6.604;2022-09-24T20:24:00;7.70;;;4.00;;
16820;SDS011;8527;49.740;6.604;2022-09-24T20:29:04;4.72;;;3.70;;
16820;SDS011;8527;49.740;6.604;2022-09-24T20:34:09;5.53;;;4.00;;
16820;SDS011;8527;49.740;6.604;2022-09-24T20:39:14;7.80;;;4.18;;
16820;SDS011;8527;49.740;6.604;2022-09-24T20:44:12;3.95;;;3.55;;
16820;SDS011;8527;49.740;6.604;2022-09-24T20:49:18;6.18;;;4.10;;
16820;SDS011;8527;49.740;6.604;2022-09-24T20:54:17;5.53;;;3.63;;
16820;SDS011;8527;49.740;6.604;2022-09-24T20:59:16;4.47;;;3.50;;
16820;SDS011;8527;49.740;6.604;2022-09-24T21:04:24;7.38;;;4.15;;
16820;SDS011;8527;49.740;6.604;2022-09-24T21:09:22;7.57;;;3.72;;
16820;SDS011;8527;49.740;6.604;2022-09-24T21:14:21;6.05;;;4.15;;
16820;SDS011;8527;49.740;6.604;2022-09-24T21:19:20;5.35;;;3.83;;
16820;SDS011;8527;49.740;6.604;2022-09-24T21:24:21;5.40;;;3.65;;
16820;SDS011;8527;49.740;6.604;2022-09-24T21:29:20;5.65;;;3.83;;
16820;SDS011;8527;49.740;6.604;2022-09-24T21:34:18;8.10;;;3.90;;
16820;SDS011;8527;49.740;6.604;2022-09-24T21:39:18;7.22;;;4.28;;
16820;SDS011;8527;49.740;6.604;2022-09-24T21:44:25;11.52;;;4.13;;
16820;SDS011;8527;49.740;6.604;2022-09-24T21:49:27;7.28;;;4.20;;
16820;SDS011;8527;49.740;6.604;2022-09-24T21:54:33;6.47;;;4.22;;
16820;SDS011;8527;49.740;6.604;2022-09-24T21:59:36;7.68;;;4.50;;
16820;SDS011;8527;49.740;6.604;2022-09-24T22:04:47;7.03;;;4.65;;
16820;SDS011;8527;49.740;6.604;2022-09-24T22:09:51;5.65;;;4.88;;
16820;SDS011;8527;49.740;6.604;2022-09-24T22:15:01;6.45;;;4.60;;
16820;SDS011;8527;49.740;6.604;2022-09-24T22:20:03;6.05;;;4.20;;
16820;SDS011;8527;49.740;6.604;2022-09-24T22:25:08;6.03;;;4.30;;
16820;SDS011;8527;49.740;6.604;2022-09-24T22:30:07;8.32;;;4.95;;
16820;SDS011;8527;49.740;6.604;2022-09-24T22:35:08;7.43;;;4.30;;
16820;SDS011;8527;49.740;6.604;2022-09-24T22:40:24;6.25;;;4.70;;
16820;SDS011;8527;49.740;6.604;2022-09-24T22:45:25;6.82;;;4.68;;
16820;SDS011;8527;49.740;6.604;2022-09-24T22:50:24;7.40;;;5.18;;
16820;SDS011;8527;49.740;6.604;2022-09-24T22:55:25;7.78;;;4.90;;
16820;SDS011;8527;49.740;6.604;2022-09-24T23:00:23;6.93;;;4.90;;
16820;SDS011;8527;49.740;6.604;2022-09-24T23:05:23;9.07;;;5.72;;
16820;SDS011;8527;49.740;6.604;2022-09-24T23:10:27;7.10;;;5.70;;
16820;SDS011;8527;49.740;6.604;2022-09-24T23:15:25;9.20;;;6.22;;
16820;SDS011;8527;49.740;6.604;2022-09-24T23:20:27;11.65;;;5.45;;
16820;SDS011;8527;49.740;6.604;2022-09-24T23:25:37;10.23;;;6.25;;
16820;SDS011;8527;49.740;6.604;2022-09-24T23:30:54;9.80;;;5.93;;
16820;SDS011;8527;49.740;6.604;2022-09-24T23:35:58;7.80;;;5.68;;
16820;SDS011;8527;49.740;6.604;2022-09-24T23:40:59;10.18;;;6.50;;
16820;SDS011;8527;49.740;6.604;2022-09-24T23:46:03;8.82;;;5.90;;
16820;SDS011;8527;49.740;6.604;2022-09-24T23:51:03;11.98;;;6.50;;
16820;SDS011;8527;49.740;6.604;2022-09-24T23:56:07;8.25;;;6.00;;
